createdAt,value
2022-11-21T00:01:27.804Z,37.47
2022-11-21T00:03:57.260Z,34.70
2022-11-21T00:06:28.730Z,36.93
2022-11-21T00:08:58.904Z,37.17
2022-11-21T00:11:29.015Z,35.40
2022-11-21T00:14:02.073Z,37.53
2022-11-21T00:16:35.634Z,36.43
2022-11-21T00:19:38.600Z,37.87
2022-11-21T00:22:09.939Z,37.00
2022-11-21T00:24:40.102Z,36.73
2022-11-21T00:27:13.477Z,38.13
2022-11-21T00:29:46.247Z,37.20
2022-11-21T00:32:16.349Z,36.77
2022-11-21T00:34:45.907Z,36.83
2022-11-21T00:37:17.102Z,39.40
2022-11-21T00:39:47.106Z,39.70
2022-11-21T00:42:16.823Z,41.10
2022-11-21T00:44:46.563Z,39.40
2022-11-21T00:47:16.474Z,39.03
2022-11-21T00:49:57.055Z,40.73
2022-11-21T00:52:36.884Z,41.60
2022-11-21T01:07:18.963Z,41.67
2022-11-21T01:09:50.826Z,42.37
2022-11-21T01:12:23.793Z,41.73
2022-11-21T01:14:53.641Z,42.10
2022-11-21T01:17:23.041Z,41.00
2022-11-21T01:19:52.614Z,41.87
2022-11-21T01:22:24.084Z,41.80
2022-11-21T01:24:54.902Z,41.50
2022-11-21T01:27:24.497Z,42.10
2022-11-21T01:29:56.533Z,41.43
2022-11-21T01:32:28.555Z,40.13
2022-11-21T01:34:59.672Z,40.20
2022-11-21T01:37:29.221Z,40.10
2022-11-21T01:40:00.051Z,39.10
2022-11-21T01:42:29.649Z,42.47
2022-11-21T01:45:00.910Z,40.60
2022-11-21T01:47:33.069Z,40.97
2022-11-21T01:50:02.776Z,39.93
2022-11-21T01:52:35.304Z,39.30
2022-11-21T01:55:11.668Z,41.13
2022-11-21T01:57:45.247Z,41.60
2022-11-21T02:00:34.494Z,40.40
2022-11-21T02:03:08.585Z,38.17
2022-11-21T02:05:40.759Z,37.70
2022-11-21T02:08:16.006Z,39.80
2022-11-21T02:10:56.632Z,41.93
2022-11-21T02:13:29.736Z,41.30
2022-11-21T02:16:00.260Z,43.10
2022-11-21T02:18:29.710Z,42.17
2022-11-21T02:21:04.718Z,41.33
2022-11-21T02:23:44.087Z,42.97
2022-11-21T02:26:15.640Z,41.30
2022-11-21T02:28:46.027Z,41.27
2022-11-21T02:31:15.429Z,41.60
2022-11-21T02:33:44.751Z,39.03
2022-11-21T02:36:43.661Z,39.87
2022-11-21T02:39:18.772Z,41.07
2022-11-21T02:41:59.173Z,40.77
2022-11-21T02:44:35.664Z,40.67
2022-11-21T02:47:06.779Z,39.03
2022-11-21T02:49:43.924Z,40.70
2022-11-21T02:52:13.284Z,41.20
2022-11-21T02:54:42.765Z,40.77
2022-11-21T02:57:13.750Z,39.27
2022-11-21T02:59:43.286Z,40.43
2022-11-21T03:02:12.834Z,39.07
2022-11-21T03:04:42.488Z,42.73
2022-11-21T03:07:14.999Z,42.97
2022-11-21T03:09:44.565Z,41.70
2022-11-21T03:12:17.082Z,43.13
2022-11-21T03:14:46.937Z,41.77
2022-11-21T03:17:16.820Z,43.33
2022-11-21T03:19:46.235Z,42.57
2022-11-21T03:22:20.328Z,42.60
2022-11-21T03:24:50.136Z,43.47
2022-11-21T03:27:21.195Z,43.53
2022-11-21T03:29:50.917Z,43.23
2022-11-21T03:32:22.676Z,44.20
2022-11-21T03:34:55.104Z,41.27
2022-11-21T04:15:27.979Z,41.10
2022-11-21T04:17:57.924Z,40.67
2022-11-21T04:20:32.403Z,42.63
2022-11-21T04:23:05.032Z,41.03
2022-11-21T04:25:35.645Z,40.93
2022-11-21T04:28:06.645Z,41.93
2022-11-21T04:30:40.395Z,41.80
2022-11-21T04:33:13.456Z,42.40
2022-11-21T04:35:46.131Z,42.00
2022-11-21T04:38:16.363Z,41.60
2022-11-21T04:40:48.199Z,41.97
2022-11-21T04:43:19.193Z,49.40
2022-11-21T04:45:50.068Z,41.97
2022-11-21T04:48:19.645Z,41.30
2022-11-21T04:50:49.171Z,42.53
2022-11-21T04:53:18.642Z,43.53
2022-11-21T04:55:48.040Z,42.80
2022-11-21T05:24:10.223Z,40.90
2022-11-21T05:26:41.783Z,40.90
2022-11-21T05:29:13.342Z,42.10
2022-11-21T05:31:43.473Z,43.87
2022-11-21T05:34:13.241Z,41.83
2022-11-21T05:36:43.549Z,44.07
2022-11-21T05:39:16.321Z,42.30
2022-11-21T05:41:50.339Z,42.17
2022-11-21T05:44:18.920Z,42.87
2022-11-21T05:46:48.752Z,41.63
2022-11-21T05:49:18.601Z,41.27
2022-11-21T05:51:49.060Z,40.70
2022-11-21T05:54:19.090Z,42.03
2022-11-21T05:56:50.037Z,43.07
2022-11-21T05:59:19.506Z,42.33
2022-11-21T06:02:07.390Z,42.13
2022-11-21T06:04:37.380Z,43.33
2022-11-21T06:07:07.320Z,43.70
2022-11-21T06:35:20.024Z,38.77
2022-11-21T06:37:53.532Z,43.70
2022-11-21T06:40:23.933Z,42.50
2022-11-21T06:42:56.994Z,44.40
2022-11-21T06:45:29.902Z,42.47
2022-11-21T06:48:03.617Z,43.00
2022-11-21T06:50:34.825Z,40.83
2022-11-21T06:53:12.871Z,41.67
2022-11-21T06:55:42.654Z,42.27
2022-11-21T06:58:13.632Z,40.17
2022-11-21T07:00:46.633Z,40.73
2022-11-21T07:03:16.283Z,41.07
2022-11-21T07:05:50.391Z,39.57
2022-11-21T07:08:20.441Z,39.60
2022-11-21T07:11:23.008Z,39.30
2022-11-21T07:13:45.220Z,40.67
2022-11-21T07:16:15.742Z,38.77
2022-11-21T07:18:46.250Z,38.50
2022-11-21T07:21:17.471Z,35.20
2022-11-21T07:23:50.383Z,38.53
2022-11-21T07:26:20.052Z,37.63
2022-11-21T07:28:50.052Z,38.47
2022-11-21T07:31:19.807Z,36.77
2022-11-21T07:33:49.844Z,37.00
2022-11-21T07:36:21.244Z,34.47
2022-11-21T07:38:54.073Z,36.00
2022-11-21T07:41:29.155Z,36.57
2022-11-21T07:43:58.861Z,36.27
2022-11-21T07:46:29.002Z,38.07
2022-11-21T07:49:03.101Z,39.00
2022-11-21T07:51:37.780Z,39.10
2022-11-21T07:54:07.856Z,37.73
2022-11-21T07:56:37.517Z,38.60
2022-11-21T07:59:07.081Z,37.43
2022-11-21T08:01:39.227Z,37.40
2022-11-21T08:04:12.334Z,38.03
2022-11-21T08:06:45.433Z,38.50
2022-11-21T08:09:17.180Z,37.87
2022-11-21T08:11:46.943Z,39.20
2022-11-21T08:14:16.651Z,37.73
2022-11-21T08:46:18.962Z,35.80
2022-11-21T08:48:52.562Z,36.60
2022-11-21T08:51:24.002Z,36.93
2022-11-21T08:53:54.534Z,36.83
2022-11-21T08:56:26.344Z,38.97
2022-11-21T08:58:57.934Z,36.27
2022-11-21T09:01:31.857Z,39.20
2022-11-21T09:04:05.112Z,36.60
2022-11-21T09:06:37.382Z,36.30
2022-11-21T09:09:13.366Z,34.53
2022-11-21T09:11:44.237Z,35.70
2022-11-21T09:14:31.755Z,33.67
2022-11-21T09:17:37.681Z,35.80
2022-11-21T09:20:14.612Z,34.07
2022-11-21T09:22:45.127Z,33.10
2022-11-21T09:25:34.942Z,33.40
2022-11-21T09:28:05.941Z,32.63
2022-11-21T09:30:42.573Z,31.70
2022-11-21T09:33:19.032Z,34.30
2022-11-21T09:35:49.980Z,32.63
2022-11-21T09:41:44.251Z,33.07
2022-11-21T09:44:29.088Z,31.37
2022-11-21T09:47:05.064Z,34.27
2022-11-21T09:49:40.352Z,30.60
2022-11-21T09:52:14.884Z,31.57
2022-11-21T09:54:50.451Z,31.57
2022-11-21T09:57:29.496Z,30.20
2022-11-21T10:00:03.240Z,31.13
2022-11-21T10:02:42.152Z,31.47
2022-11-21T10:05:16.566Z,31.03
2022-11-21T10:07:47.334Z,31.27
2022-11-21T10:10:30.517Z,30.77
2022-11-21T10:13:15.665Z,27.70
2022-11-21T10:15:57.145Z,29.23
2022-11-21T10:18:45.423Z,29.80
2022-11-21T10:21:31.294Z,27.47
2022-11-21T10:24:14.221Z,28.10
2022-11-21T10:26:51.962Z,30.00
2022-11-21T10:29:29.722Z,26.63
2022-11-21T10:32:05.133Z,25.13
2022-11-21T10:34:43.594Z,25.37
2022-11-21T10:37:22.931Z,26.73
2022-11-21T10:40:00.782Z,25.37
2022-11-21T10:42:36.943Z,25.53
2022-11-21T10:45:18.998Z,26.85
2022-11-21T10:47:50.000Z,25.70
2022-11-21T10:50:42.002Z,22.67
2022-11-21T10:53:41.219Z,23.27
2022-11-21T10:56:14.795Z,22.97
2022-11-21T10:58:47.949Z,24.10
2022-11-21T11:01:24.246Z,23.20
2022-11-21T11:04:30.385Z,24.80
2022-11-21T11:07:23.535Z,25.70
2022-11-21T11:09:54.076Z,23.87
2022-11-21T11:12:47.751Z,25.03
2022-11-21T11:15:23.507Z,24.37
2022-11-21T11:18:01.498Z,23.43
2022-11-21T11:20:39.345Z,25.10
2022-11-21T11:23:25.011Z,24.33
2022-11-21T11:25:56.971Z,24.70
2022-11-21T11:28:28.382Z,24.77
2022-11-21T11:30:59.203Z,25.37
2022-11-21T11:33:42.653Z,23.37
2022-11-21T11:36:18.082Z,24.07
2022-11-21T11:38:53.980Z,25.23
2022-11-21T11:42:20.074Z,24.87
2022-11-21T11:45:18.511Z,24.53
2022-11-21T11:47:54.647Z,24.63
2022-11-21T11:50:31.454Z,22.90
2022-11-21T11:53:07.937Z,25.30
2022-11-21T11:55:45.521Z,24.93
2022-11-21T11:58:24.136Z,25.17
2022-11-21T12:01:01.923Z,26.17
2022-11-21T12:03:43.057Z,25.50
2022-11-21T12:06:31.726Z,25.43
2022-11-21T12:09:22.955Z,24.73
2022-11-21T12:12:09.777Z,24.97
2022-11-21T12:15:22.200Z,24.67
2022-11-21T12:18:09.446Z,25.60
2022-11-21T12:20:41.908Z,22.80
2022-11-21T12:23:14.159Z,23.03
2022-11-21T12:25:53.831Z,23.13
2022-11-21T12:28:31.600Z,25.40
2022-11-21T12:31:11.501Z,23.70
2022-11-21T12:33:51.803Z,23.40
2022-11-21T12:36:34.391Z,23.57
2022-11-21T12:39:40.537Z,23.93
2022-11-21T12:42:34.345Z,23.53
2022-11-21T12:45:24.745Z,23.67
2022-11-21T12:48:38.717Z,24.17
2022-11-21T12:52:03.987Z,24.73
2022-11-21T12:55:03.450Z,23.63
2022-11-21T12:57:49.667Z,24.47
2022-11-21T13:00:45.987Z,25.07
2022-11-21T13:04:06.616Z,26.20
2022-11-21T13:06:59.160Z,25.37
2022-11-21T13:09:33.829Z,25.57
2022-11-21T13:12:32.019Z,26.67
2022-11-21T13:15:18.799Z,26.53
2022-11-21T13:17:54.614Z,28.23
2022-11-21T13:20:30.924Z,27.70
2022-11-21T13:23:07.098Z,28.17
2022-11-21T13:25:58.780Z,28.20
2022-11-21T13:28:36.220Z,28.27
2022-11-21T13:31:29.936Z,28.20
2022-11-21T13:34:00.700Z,26.93
2022-11-21T13:36:42.633Z,28.50
2022-11-21T13:39:39.761Z,28.00
2022-11-21T13:42:31.925Z,28.47
2022-11-21T13:45:47.171Z,26.10
2022-11-21T13:52:18.185Z,27.37
2022-11-21T13:55:26.909Z,27.43
2022-11-21T13:58:08.345Z,27.57
2022-11-21T14:01:12.274Z,28.67
2022-11-21T14:04:06.265Z,27.20
2022-11-21T14:06:43.878Z,28.03
2022-11-21T14:09:26.838Z,26.60
2022-11-21T14:11:59.823Z,25.43
2022-11-21T14:14:43.355Z,27.37
2022-11-21T14:17:36.336Z,28.33
2022-11-21T14:20:17.074Z,27.47
2022-11-21T14:22:54.865Z,28.20
2022-11-21T14:25:30.145Z,29.33
2022-11-21T14:28:01.256Z,33.57
2022-11-21T14:30:36.536Z,35.30
2022-11-21T14:33:32.513Z,36.60
2022-11-21T14:36:06.207Z,33.70
2022-11-21T14:38:43.205Z,37.83
2022-11-21T14:41:31.729Z,37.57
2022-11-21T14:44:17.305Z,38.13
2022-11-21T14:46:50.426Z,37.17
2022-11-21T14:49:30.811Z,39.40
2022-11-21T14:52:05.767Z,39.93
2022-11-21T14:55:00.315Z,38.23
2022-11-21T14:57:39.576Z,39.13
2022-11-21T15:00:20.523Z,38.80
2022-11-21T15:03:00.793Z,44.33
2022-11-21T15:11:17.486Z,40.77
2022-11-21T15:16:40.104Z,40.83
2022-11-21T15:19:12.427Z,38.33
2022-11-21T15:21:47.736Z,39.40
2022-11-21T15:24:29.702Z,40.00
2022-11-21T15:26:59.678Z,39.93
2022-11-21T15:29:32.086Z,40.43
2022-11-21T15:32:09.220Z,40.37
2022-11-21T15:34:41.955Z,38.57
2022-11-21T15:37:21.523Z,39.77
2022-11-21T15:39:53.809Z,40.27
2022-11-21T15:42:39.905Z,38.37
2022-11-21T15:45:27.031Z,40.53
2022-11-21T15:47:57.280Z,40.10
2022-11-21T15:50:27.445Z,37.90
2022-11-21T15:52:59.877Z,36.97
2022-11-21T15:55:34.836Z,38.23
2022-11-21T15:58:10.968Z,37.40
2022-11-21T16:00:42.756Z,37.57
2022-11-21T16:03:12.326Z,37.90
2022-11-21T16:05:42.145Z,37.60
2022-11-21T16:08:13.614Z,37.43
2022-11-21T16:10:43.565Z,35.83
2022-11-21T16:13:13.633Z,36.43
2022-11-21T16:15:43.984Z,38.50
2022-11-21T16:18:13.937Z,37.20
2022-11-21T16:20:43.695Z,35.17
2022-11-21T16:23:14.964Z,36.40
2022-11-21T16:25:56.923Z,36.17
2022-11-21T16:28:27.092Z,38.87
2022-11-21T16:30:57.235Z,37.10
2022-11-21T16:33:27.577Z,38.03
2022-11-21T16:35:58.317Z,38.33
2022-11-21T16:38:31.460Z,37.60
2022-11-21T16:41:07.200Z,39.47
2022-11-21T16:43:37.938Z,37.67
2022-11-21T16:46:11.556Z,38.77
2022-11-21T16:48:42.030Z,39.40
2022-11-21T16:51:14.166Z,37.10
2022-11-21T16:53:48.006Z,37.73
2022-11-21T16:56:18.637Z,38.13
2022-11-21T17:01:37.648Z,37.13
2022-11-21T17:04:16.864Z,37.33
2022-11-21T17:06:49.845Z,37.63
2022-11-21T17:09:22.982Z,37.23
2022-11-21T17:11:53.327Z,38.77
2022-11-21T17:14:27.578Z,35.90
2022-11-21T17:17:01.437Z,37.33
2022-11-21T17:22:47.298Z,36.67
2022-11-21T17:25:32.267Z,38.03
2022-11-21T17:28:02.649Z,36.23
2022-11-21T17:30:38.748Z,37.63
2022-11-21T17:33:11.115Z,39.17
2022-11-21T17:35:41.766Z,38.27
2022-11-21T17:38:14.758Z,38.17
2022-11-21T17:40:47.946Z,37.50
2022-11-21T17:43:18.138Z,37.03
2022-11-21T17:45:50.967Z,38.03
2022-11-21T17:48:24.377Z,36.63
2022-11-21T17:51:01.256Z,37.23
2022-11-21T17:53:34.325Z,37.53
2022-11-21T17:56:08.866Z,37.77
2022-11-21T17:58:39.497Z,36.63
2022-11-21T18:01:12.007Z,36.80
2022-11-21T18:03:42.840Z,36.33
2022-11-21T18:06:15.097Z,39.10
2022-11-21T18:08:48.427Z,38.63
2022-11-21T18:11:23.626Z,39.27
2022-11-21T18:13:55.957Z,37.40
2022-11-21T18:16:28.387Z,38.70
2022-11-21T18:18:59.756Z,38.27
2022-11-21T18:21:32.909Z,41.63
2022-11-21T18:24:03.647Z,37.97
2022-11-21T18:26:38.028Z,39.20
2022-11-21T18:32:13.655Z,37.93
2022-11-21T18:35:03.897Z,36.67
2022-11-21T18:40:38.767Z,38.03
2022-11-21T18:43:13.977Z,38.10
2022-11-21T18:45:44.720Z,39.73
2022-11-21T18:48:17.101Z,37.93
2022-11-21T18:50:50.569Z,37.07
2022-11-21T18:53:22.049Z,39.67
2022-11-21T18:55:53.947Z,37.47
2022-11-21T18:58:26.457Z,38.87
2022-11-21T19:01:03.259Z,38.00
2022-11-21T19:03:37.428Z,37.07
2022-11-21T19:06:09.410Z,37.03
2022-11-21T19:08:41.097Z,36.93
2022-11-21T19:11:14.429Z,39.60
2022-11-21T19:16:54.520Z,39.43
2022-11-21T19:19:34.590Z,39.13
2022-11-21T19:22:17.482Z,36.60
2022-11-21T19:24:48.611Z,37.33
2022-11-21T19:27:21.516Z,39.27
2022-11-21T19:30:04.893Z,35.87
2022-11-21T19:32:36.558Z,36.90
2022-11-21T19:35:09.394Z,38.07
2022-11-21T19:37:40.786Z,35.77
2022-11-21T19:40:13.390Z,38.30
2022-11-21T19:42:44.751Z,38.97
2022-11-21T19:45:17.322Z,36.60
2022-11-21T19:47:48.191Z,37.33
2022-11-21T19:50:19.560Z,35.97
2022-11-21T19:52:50.495Z,35.83
2022-11-21T19:55:21.401Z,37.00
2022-11-21T19:57:52.067Z,38.53
2022-11-21T20:00:27.033Z,36.80
2022-11-21T20:02:57.886Z,36.97
2022-11-21T20:05:28.759Z,36.70
2022-11-21T20:08:04.653Z,36.47
2022-11-21T20:10:39.334Z,37.70
2022-11-21T20:13:09.741Z,36.23
2022-11-21T20:15:42.141Z,36.23
2022-11-21T20:18:13.433Z,36.60
2022-11-21T20:20:44.508Z,36.23
2022-11-21T20:23:15.377Z,37.10
2022-11-21T20:25:50.363Z,35.83
2022-11-21T20:28:22.320Z,34.50
2022-11-21T20:30:54.390Z,34.10
2022-11-21T20:33:25.677Z,34.90
2022-11-21T20:35:56.617Z,34.00
2022-11-21T20:38:28.236Z,34.83
2022-11-21T20:40:58.713Z,33.13
2022-11-21T20:44:02.632Z,34.73
2022-11-21T20:46:24.960Z,33.53
2022-11-21T20:48:57.161Z,33.23
2022-11-21T20:54:18.321Z,33.60
2022-11-21T20:56:49.128Z,34.70
2022-11-21T20:59:19.399Z,32.70
2022-11-21T21:01:51.340Z,34.43
2022-11-21T21:04:22.406Z,32.60
2022-11-21T21:06:52.749Z,33.27
2022-11-21T21:09:23.389Z,32.90
2022-11-21T21:11:54.213Z,33.73
2022-11-21T21:14:24.434Z,34.40
2022-11-21T21:16:56.019Z,34.53
2022-11-21T21:19:26.022Z,34.57
2022-11-21T21:21:56.092Z,34.77
2022-11-21T21:24:25.751Z,34.83
2022-11-21T21:26:55.548Z,35.20
2022-11-21T21:29:25.095Z,34.10
2022-11-21T21:31:56.411Z,36.30
2022-11-21T21:34:25.958Z,34.27
2022-11-21T21:36:55.502Z,33.97
2022-11-21T21:39:25.750Z,35.73
2022-11-21T21:41:55.562Z,36.53
2022-11-21T21:44:29.848Z,35.97
2022-11-21T21:47:02.595Z,36.63
2022-11-21T21:49:32.531Z,34.37
2022-11-21T21:52:02.280Z,36.50
2022-11-21T21:54:32.580Z,35.20
2022-11-21T21:57:02.379Z,35.10
2022-11-21T21:59:33.402Z,34.97
2022-11-21T22:02:04.802Z,35.03
2022-11-21T22:04:34.591Z,33.23
2022-11-21T22:07:05.862Z,34.57
2022-11-21T22:09:35.445Z,34.13
2022-11-21T22:12:05.221Z,35.93
2022-11-21T22:14:35.209Z,32.90
2022-11-21T22:17:06.431Z,33.63
2022-11-21T22:19:36.156Z,33.47
2022-11-21T22:22:05.753Z,34.07
2022-11-21T22:24:35.324Z,33.00
2022-11-21T22:27:05.156Z,31.83
2022-11-21T22:29:34.594Z,32.30
2022-11-21T22:32:06.842Z,33.13
2022-11-21T22:34:36.432Z,33.03
2022-11-21T22:37:05.885Z,33.33
2022-11-21T22:39:35.642Z,32.47
2022-11-21T22:42:05.553Z,32.90
2022-11-21T22:44:35.476Z,32.40
2022-11-21T22:47:06.766Z,32.97
2022-11-21T22:49:36.451Z,30.70
2022-11-21T22:52:06.089Z,30.97
2022-11-21T22:54:35.816Z,30.90
2022-11-21T22:57:05.409Z,30.70
2022-11-21T22:59:35.240Z,31.17
2022-11-21T23:02:06.448Z,31.90
2022-11-21T23:04:36.195Z,31.03
2022-11-21T23:07:05.987Z,31.27
2022-11-21T23:09:35.576Z,32.17
2022-11-21T23:12:05.373Z,32.13
2022-11-21T23:14:37.468Z,32.33
2022-11-21T23:17:09.476Z,30.50
2022-11-21T23:19:39.307Z,32.67
2022-11-21T23:22:09.162Z,31.53
2022-11-21T23:24:39.252Z,32.07
2022-11-21T23:27:09.303Z,32.37
2022-11-21T23:29:40.214Z,33.13
2022-11-21T23:32:11.951Z,33.30
2022-11-21T23:34:42.876Z,32.93
2022-11-21T23:37:13.038Z,33.07
2022-11-21T23:39:43.637Z,31.13
2022-11-21T23:42:13.996Z,34.67
2022-11-21T23:44:44.783Z,32.27
2022-11-21T23:47:17.854Z,33.30
2022-11-21T23:49:50.204Z,34.97
2022-11-21T23:52:20.050Z,31.17
2022-11-21T23:54:49.531Z,33.23
2022-11-21T23:57:19.373Z,32.43
2022-11-21T23:59:48.740Z,34.43
